sensor_id;sensor_type;location;lat;lon;timestamp;P1;durP1;ratioP1;P2;durP2;ratioP2
60416;SDS011;46263;44.726;10.396;2022-08-27T00:01:37;3.35;;;3.05;;
60416;SDS011;46263;44.726;10.396;2022-08-27T00:04:03;3.33;;;3.10;;
60416;SDS011;46263;44.726;10.396;2022-08-27T00:06:29;3.70;;;3.40;;
60416;SDS011;46263;44.726;10.396;2022-08-27T00:08:54;4.45;;;3.25;;
60416;SDS011;46263;44.726;10.396;2022-08-27T00:11:20;3.55;;;3.25;;
60416;SDS011;46263;44.726;10.396;2022-08-27T00:13:49;3.45;;;3.20;;
60416;SDS011;46263;44.726;10.396;2022-08-27T00:16:15;3.70;;;3.40;;
60416;SDS011;46263;44.726;10.396;2022-08-27T00:18:42;3.50;;;3.20;;
60416;SDS011;46263;44.726;10.396;2022-08-27T00:21:09;3.58;;;3.15;;
60416;SDS011;46263;44.726;10.396;2022-08-27T00:23:35;3.72;;;3.42;;
60416;SDS011;46263;44.726;10.396;2022-08-27T00:26:01;3.22;;;2.88;;
60416;SDS011;46263;44.726;10.396;2022-08-27T00:28:28;3.78;;;3.40;;
60416;SDS011;46263;44.726;10.396;2022-08-27T00:30:54;3.45;;;3.15;;
60416;SDS011;46263;44.726;10.396;2022-08-27T00:33:20;3.65;;;3.30;;
60416;SDS011;46263;44.726;10.396;2022-08-27T00:35:46;3.20;;;3.00;;
60416;SDS011;46263;44.726;10.396;2022-08-27T00:38:12;3.50;;;3.30;;
60416;SDS011;46263;44.726;10.396;2022-08-27T00:40:38;4.15;;;3.08;;
60416;SDS011;46263;44.726;10.396;2022-08-27T00:43:04;3.40;;;3.20;;
60416;SDS011;46263;44.726;10.396;2022-08-27T00:45:31;3.67;;;3.38;;
60416;SDS011;46263;44.726;10.396;2022-08-27T00:48:02;5.03;;;3.78;;
60416;SDS011;46263;44.726;10.396;2022-08-27T00:50:34;3.22;;;2.97;;
60416;SDS011;46263;44.726;10.396;2022-08-27T00:53:24;3.80;;;3.50;;
60416;SDS011;46263;44.726;10.396;2022-08-27T00:58:46;3.50;;;3.20;;
60416;SDS011;46263;44.726;10.396;2022-08-27T01:01:15;3.90;;;3.00;;
60416;SDS011;46263;44.726;10.396;2022-08-27T01:03:44;3.83;;;3.35;;
60416;SDS011;46263;44.726;10.396;2022-08-27T01:06:12;3.63;;;3.33;;
60416;SDS011;46263;44.726;10.396;2022-08-27T01:08:42;3.92;;;3.35;;
60416;SDS011;46263;44.726;10.396;2022-08-27T01:11:12;4.75;;;3.38;;
60416;SDS011;46263;44.726;10.396;2022-08-27T01:13:38;3.72;;;3.05;;
60416;SDS011;46263;44.726;10.396;2022-08-27T01:16:04;4.35;;;3.47;;
60416;SDS011;46263;44.726;10.396;2022-08-27T01:18:33;3.35;;;3.00;;
60416;SDS011;46263;44.726;10.396;2022-08-27T01:21:03;3.85;;;3.42;;
60416;SDS011;46263;44.726;10.396;2022-08-27T01:23:34;3.58;;;3.28;;
60416;SDS011;46263;44.726;10.396;2022-08-27T01:26:07;3.47;;;3.17;;
60416;SDS011;46263;44.726;10.396;2022-08-27T01:28:34;4.45;;;3.63;;
60416;SDS011;46263;44.726;10.396;2022-08-27T01:31:02;5.35;;;3.88;;
60416;SDS011;46263;44.726;10.396;2022-08-27T01:33:31;3.85;;;3.35;;
60416;SDS011;46263;44.726;10.396;2022-08-27T01:35:57;4.30;;;3.30;;
60416;SDS011;46263;44.726;10.396;2022-08-27T01:38:23;3.58;;;3.28;;
60416;SDS011;46263;44.726;10.396;2022-08-27T01:40:49;5.65;;;3.50;;
60416;SDS011;46263;44.726;10.396;2022-08-27T01:43:15;4.05;;;3.70;;
60416;SDS011;46263;44.726;10.396;2022-08-27T01:45:43;3.63;;;3.28;;
60416;SDS011;46263;44.726;10.396;2022-08-27T01:48:12;4.93;;;3.90;;
60416;SDS011;46263;44.726;10.396;2022-08-27T01:50:39;3.88;;;3.47;;
60416;SDS011;46263;44.726;10.396;2022-08-27T01:53:07;3.60;;;3.30;;
60416;SDS011;46263;44.726;10.396;2022-08-27T01:55:35;4.78;;;3.40;;
60416;SDS011;46263;44.726;10.396;2022-08-27T01:58:01;3.67;;;3.35;;
60416;SDS011;46263;44.726;10.396;2022-08-27T02:00:29;3.90;;;3.47;;
60416;SDS011;46263;44.726;10.396;2022-08-27T02:02:57;3.47;;;3.08;;
60416;SDS011;46263;44.726;10.396;2022-08-27T02:05:23;3.47;;;3.15;;
60416;SDS011;46263;44.726;10.396;2022-08-27T02:07:50;3.92;;;3.63;;
60416;SDS011;46263;44.726;10.396;2022-08-27T02:10:18;4.80;;;3.38;;
60416;SDS011;46263;44.726;10.396;2022-08-27T02:12:47;4.25;;;3.58;;
60416;SDS011;46263;44.726;10.396;2022-08-27T02:15:13;3.22;;;2.92;;
60416;SDS011;46263;44.726;10.396;2022-08-27T02:17:39;3.58;;;3.08;;
60416;SDS011;46263;44.726;10.396;2022-08-27T02:20:06;4.05;;;3.30;;
60416;SDS011;46263;44.726;10.396;2022-08-27T02:22:33;3.70;;;3.40;;
60416;SDS011;46263;44.726;10.396;2022-08-27T02:24:59;3.67;;;3.33;;
60416;SDS011;46263;44.726;10.396;2022-08-27T02:27:26;3.67;;;3.25;;
60416;SDS011;46263;44.726;10.396;2022-08-27T02:29:51;4.18;;;3.30;;
60416;SDS011;46263;44.726;10.396;2022-08-27T02:32:17;4.75;;;3.53;;
60416;SDS011;46263;44.726;10.396;2022-08-27T02:34:44;3.67;;;3.38;;
60416;SDS011;46263;44.726;10.396;2022-08-27T02:37:09;3.47;;;3.03;;
60416;SDS011;46263;44.726;10.396;2022-08-27T02:39:35;4.75;;;4.35;;
60416;SDS011;46263;44.726;10.396;2022-08-27T02:42:00;3.45;;;3.15;;
60416;SDS011;46263;44.726;10.396;2022-08-27T02:44:26;3.60;;;3.28;;
60416;SDS011;46263;44.726;10.396;2022-08-27T02:46:51;5.82;;;3.63;;
60416;SDS011;46263;44.726;10.396;2022-08-27T02:49:17;3.85;;;3.53;;
60416;SDS011;46263;44.726;10.396;2022-08-27T02:51:43;3.38;;;3.08;;
60416;SDS011;46263;44.726;10.396;2022-08-27T02:54:08;3.90;;;3.35;;
60416;SDS011;46263;44.726;10.396;2022-08-27T02:56:34;3.38;;;3.08;;
60416;SDS011;46263;44.726;10.396;2022-08-27T02:59:00;4.10;;;3.20;;
60416;SDS011;46263;44.726;10.396;2022-08-27T03:01:25;4.05;;;3.33;;
60416;SDS011;46263;44.726;10.396;2022-08-27T03:03:51;4.30;;;3.30;;
60416;SDS011;46263;44.726;10.396;2022-08-27T03:06:16;4.22;;;3.83;;
60416;SDS011;46263;44.726;10.396;2022-08-27T03:08:42;4.68;;;3.50;;
60416;SDS011;46263;44.726;10.396;2022-08-27T03:11:07;3.80;;;3.40;;
60416;SDS011;46263;44.726;10.396;2022-08-27T03:13:36;4.80;;;3.47;;
60416;SDS011;46263;44.726;10.396;2022-08-27T03:16:03;3.53;;;3.22;;
60416;SDS011;46263;44.726;10.396;2022-08-27T03:18:30;3.50;;;3.30;;
60416;SDS011;46263;44.726;10.396;2022-08-27T03:20:56;4.63;;;3.78;;
60416;SDS011;46263;44.726;10.396;2022-08-27T03:23:25;4.05;;;3.40;;
60416;SDS011;46263;44.726;10.396;2022-08-27T03:25:54;3.72;;;3.42;;
60416;SDS011;46263;44.726;10.396;2022-08-27T03:28:28;4.22;;;3.83;;
60416;SDS011;46263;44.726;10.396;2022-08-27T03:30:57;4.00;;;3.70;;
60416;SDS011;46263;44.726;10.396;2022-08-27T03:33:26;3.63;;;3.33;;
60416;SDS011;46263;44.726;10.396;2022-08-27T03:35:57;4.50;;;3.60;;
60416;SDS011;46263;44.726;10.396;2022-08-27T03:38:22;3.92;;;3.47;;
60416;SDS011;46263;44.726;10.396;2022-08-27T03:40:49;3.70;;;3.40;;
60416;SDS011;46263;44.726;10.396;2022-08-27T03:43:16;4.28;;;3.10;;
60416;SDS011;46263;44.726;10.396;2022-08-27T03:45:43;4.72;;;3.80;;
60416;SDS011;46263;44.726;10.396;2022-08-27T03:48:10;5.03;;;3.90;;
60416;SDS011;46263;44.726;10.396;2022-08-27T03:50:37;4.00;;;3.60;;
60416;SDS011;46263;44.726;10.396;2022-08-27T03:53:04;4.10;;;3.70;;
60416;SDS011;46263;44.726;10.396;2022-08-27T03:55:30;5.13;;;3.95;;
60416;SDS011;46263;44.726;10.396;2022-08-27T03:57:55;4.13;;;3.50;;
60416;SDS011;46263;44.726;10.396;2022-08-27T04:00:21;4.45;;;3.63;;
60416;SDS011;46263;44.726;10.396;2022-08-27T04:02:48;5.97;;;3.80;;
60416;SDS011;46263;44.726;10.396;2022-08-27T04:05:14;4.15;;;3.35;;
60416;SDS011;46263;44.726;10.396;2022-08-27T04:07:40;4.20;;;3.80;;
60416;SDS011;46263;44.726;10.396;2022-08-27T04:10:08;3.88;;;3.58;;
60416;SDS011;46263;44.726;10.396;2022-08-27T04:12:35;3.78;;;3.47;;
60416;SDS011;46263;44.726;10.396;2022-08-27T04:15:02;4.40;;;3.85;;
60416;SDS011;46263;44.726;10.396;2022-08-27T04:17:29;3.90;;;3.55;;
60416;SDS011;46263;44.726;10.396;2022-08-27T04:19:55;7.30;;;3.67;;
60416;SDS011;46263;44.726;10.396;2022-08-27T04:22:20;4.63;;;3.75;;
60416;SDS011;46263;44.726;10.396;2022-08-27T04:24:47;4.53;;;4.07;;
60416;SDS011;46263;44.726;10.396;2022-08-27T04:27:13;3.67;;;3.38;;
60416;SDS011;46263;44.726;10.396;2022-08-27T04:29:40;3.92;;;3.50;;
60416;SDS011;46263;44.726;10.396;2022-08-27T04:32:06;3.70;;;3.42;;
60416;SDS011;46263;44.726;10.396;2022-08-27T04:34:32;3.97;;;3.42;;
60416;SDS011;46263;44.726;10.396;2022-08-27T04:36:58;5.45;;;3.65;;
60416;SDS011;46263;44.726;10.396;2022-08-27T04:39:25;3.75;;;3.45;;
60416;SDS011;46263;44.726;10.396;2022-08-27T04:41:52;3.65;;;3.35;;
60416;SDS011;46263;44.726;10.396;2022-08-27T04:44:24;4.65;;;3.65;;
60416;SDS011;46263;44.726;10.396;2022-08-27T04:47:01;4.93;;;4.07;;
60416;SDS011;46263;44.726;10.396;2022-08-27T04:49:28;4.15;;;3.58;;
60416;SDS011;46263;44.726;10.396;2022-08-27T04:51:54;3.92;;;3.63;;
60416;SDS011;46263;44.726;10.396;2022-08-27T04:54:20;4.45;;;3.40;;
60416;SDS011;46263;44.726;10.396;2022-08-27T04:56:46;5.00;;;3.80;;
60416;SDS011;46263;44.726;10.396;2022-08-27T04:59:12;3.80;;;3.38;;
60416;SDS011;46263;44.726;10.396;2022-08-27T05:01:38;5.80;;;3.35;;
60416;SDS011;46263;44.726;10.396;2022-08-27T05:04:05;4.50;;;3.90;;
60416;SDS011;46263;44.726;10.396;2022-08-27T05:06:30;4.10;;;3.53;;
60416;SDS011;46263;44.726;10.396;2022-08-27T05:08:57;6.13;;;3.70;;
60416;SDS011;46263;44.726;10.396;2022-08-27T05:11:23;4.25;;;3.85;;
60416;SDS011;46263;44.726;10.396;2022-08-27T05:13:52;4.18;;;3.80;;
60416;SDS011;46263;44.726;10.396;2022-08-27T05:16:19;6.15;;;3.60;;
60416;SDS011;46263;44.726;10.396;2022-08-27T05:18:46;3.90;;;3.42;;
60416;SDS011;46263;44.726;10.396;2022-08-27T05:21:24;4.30;;;3.88;;
60416;SDS011;46263;44.726;10.396;2022-08-27T05:23:52;3.92;;;3.63;;
60416;SDS011;46263;44.726;10.396;2022-08-27T05:26:19;3.92;;;3.53;;
60416;SDS011;46263;44.726;10.396;2022-08-27T05:28:45;3.80;;;3.40;;
60416;SDS011;46263;44.726;10.396;2022-08-27T05:31:12;3.95;;;3.50;;
60416;SDS011;46263;44.726;10.396;2022-08-27T05:33:38;4.10;;;3.72;;
60416;SDS011;46263;44.726;10.396;2022-08-27T05:36:06;3.63;;;3.33;;
60416;SDS011;46263;44.726;10.396;2022-08-27T05:38:38;3.53;;;3.22;;
60416;SDS011;46263;44.726;10.396;2022-08-27T05:41:08;4.50;;;3.45;;
60416;SDS011;46263;44.726;10.396;2022-08-27T05:43:36;4.47;;;4.07;;
60416;SDS011;46263;44.726;10.396;2022-08-27T05:46:04;3.50;;;3.17;;
60416;SDS011;46263;44.726;10.396;2022-08-27T05:48:31;3.50;;;3.30;;
60416;SDS011;46263;44.726;10.396;2022-08-27T05:50:57;3.67;;;3.38;;
60416;SDS011;46263;44.726;10.396;2022-08-27T05:53:22;4.22;;;3.60;;
60416;SDS011;46263;44.726;10.396;2022-08-27T05:55:48;4.25;;;3.50;;
60416;SDS011;46263;44.726;10.396;2022-08-27T05:58:13;4.72;;;3.83;;
60416;SDS011;46263;44.726;10.396;2022-08-27T06:00:58;3.72;;;3.33;;
60416;SDS011;46263;44.726;10.396;2022-08-27T06:03:31;5.15;;;3.75;;
60416;SDS011;46263;44.726;10.396;2022-08-27T06:06:00;4.10;;;3.70;;
60416;SDS011;46263;44.726;10.396;2022-08-27T06:08:28;3.80;;;3.50;;
60416;SDS011;46263;44.726;10.396;2022-08-27T06:10:53;3.67;;;3.38;;
60416;SDS011;46263;44.726;10.396;2022-08-27T06:13:20;4.13;;;3.83;;
60416;SDS011;46263;44.726;10.396;2022-08-27T06:15:46;4.22;;;3.83;;
60416;SDS011;46263;44.726;10.396;2022-08-27T06:18:12;3.88;;;3.50;;
60416;SDS011;46263;44.726;10.396;2022-08-27T06:20:38;6.50;;;3.80;;
60416;SDS011;46263;44.726;10.396;2022-08-27T06:23:03;4.75;;;3.63;;
60416;SDS011;46263;44.726;10.396;2022-08-27T06:25:29;4.10;;;3.70;;
60416;SDS011;46263;44.726;10.396;2022-08-27T06:27:56;4.10;;;3.67;;
60416;SDS011;46263;44.726;10.396;2022-08-27T06:30:23;6.20;;;3.97;;
60416;SDS011;46263;44.726;10.396;2022-08-27T06:32:49;3.50;;;3.17;;
60416;SDS011;46263;44.726;10.396;2022-08-27T06:35:16;3.85;;;3.50;;
60416;SDS011;46263;44.726;10.396;2022-08-27T06:37:42;5.43;;;3.67;;
60416;SDS011;46263;44.726;10.396;2022-08-27T06:40:08;4.18;;;3.78;;
60416;SDS011;46263;44.726;10.396;2022-08-27T06:42:35;7.53;;;4.00;;
60416;SDS011;46263;44.726;10.396;2022-08-27T06:45:01;4.50;;;3.97;;
60416;SDS011;46263;44.726;10.396;2022-08-27T06:47:29;4.32;;;3.50;;
60416;SDS011;46263;44.726;10.396;2022-08-27T06:49:55;4.30;;;3.70;;
60416;SDS011;46263;44.726;10.396;2022-08-27T06:52:21;3.90;;;3.60;;
60416;SDS011;46263;44.726;10.396;2022-08-27T06:54:47;3.55;;;3.25;;
60416;SDS011;46263;44.726;10.396;2022-08-27T06:57:13;7.28;;;4.30;;
60416;SDS011;46263;44.726;10.396;2022-08-27T06:59:38;4.10;;;3.70;;
60416;SDS011;46263;44.726;10.396;2022-08-27T07:02:04;4.13;;;3.78;;
60416;SDS011;46263;44.726;10.396;2022-08-27T07:04:29;3.90;;;3.60;;
60416;SDS011;46263;44.726;10.396;2022-08-27T07:06:54;4.07;;;3.55;;
60416;SDS011;46263;44.726;10.396;2022-08-27T07:09:20;7.22;;;3.35;;
60416;SDS011;46263;44.726;10.396;2022-08-27T07:11:48;5.28;;;3.63;;
60416;SDS011;46263;44.726;10.396;2022-08-27T07:14:13;4.70;;;3.78;;
60416;SDS011;46263;44.726;10.396;2022-08-27T07:16:40;4.00;;;3.35;;
60416;SDS011;46263;44.726;10.396;2022-08-27T07:19:07;4.70;;;3.83;;
60416;SDS011;46263;44.726;10.396;2022-08-27T07:21:33;5.80;;;3.72;;
60416;SDS011;46263;44.726;10.396;2022-08-27T07:23:59;4.43;;;3.38;;
60416;SDS011;46263;44.726;10.396;2022-08-27T07:26:29;4.30;;;3.28;;
60416;SDS011;46263;44.726;10.396;2022-08-27T07:28:56;3.70;;;3.40;;
60416;SDS011;46263;44.726;10.396;2022-08-27T07:31:22;3.47;;;3.15;;
60416;SDS011;46263;44.726;10.396;2022-08-27T07:33:48;5.72;;;3.58;;
60416;SDS011;46263;44.726;10.396;2022-08-27T07:36:14;4.10;;;3.70;;
60416;SDS011;46263;44.726;10.396;2022-08-27T07:38:40;5.70;;;4.05;;
60416;SDS011;46263;44.726;10.396;2022-08-27T07:41:06;4.28;;;3.45;;
60416;SDS011;46263;44.726;10.396;2022-08-27T07:43:33;3.85;;;3.53;;
60416;SDS011;46263;44.726;10.396;2022-08-27T07:46:17;5.05;;;3.50;;
60416;SDS011;46263;44.726;10.396;2022-08-27T07:48:46;5.97;;;3.40;;
60416;SDS011;46263;44.726;10.396;2022-08-27T07:51:12;3.60;;;3.30;;
60416;SDS011;46263;44.726;10.396;2022-08-27T07:53:43;6.40;;;3.60;;
60416;SDS011;46263;44.726;10.396;2022-08-27T07:56:10;3.72;;;3.42;;
60416;SDS011;46263;44.726;10.396;2022-08-27T07:58:36;3.90;;;3.60;;
60416;SDS011;46263;44.726;10.396;2022-08-27T08:01:02;5.35;;;3.85;;
60416;SDS011;46263;44.726;10.396;2022-08-27T08:03:27;3.97;;;3.50;;
60416;SDS011;46263;44.726;10.396;2022-08-27T08:05:53;4.00;;;3.65;;
60416;SDS011;46263;44.726;10.396;2022-08-27T08:08:22;5.03;;;4.03;;
60416;SDS011;46263;44.726;10.396;2022-08-27T08:10:48;3.80;;;3.40;;
60416;SDS011;46263;44.726;10.396;2022-08-27T08:13:17;4.07;;;3.67;;
60416;SDS011;46263;44.726;10.396;2022-08-27T08:15:44;3.55;;;3.20;;
60416;SDS011;46263;44.726;10.396;2022-08-27T08:18:10;3.75;;;3.38;;
60416;SDS011;46263;44.726;10.396;2022-08-27T08:20:36;3.88;;;3.40;;
60416;SDS011;46263;44.726;10.396;2022-08-27T08:23:02;3.85;;;3.53;;
60416;SDS011;46263;44.726;10.396;2022-08-27T08:25:28;3.70;;;3.40;;
60416;SDS011;46263;44.726;10.396;2022-08-27T08:27:54;4.60;;;3.53;;
60416;SDS011;46263;44.726;10.396;2022-08-27T08:30:20;5.28;;;3.58;;
60416;SDS011;46263;44.726;10.396;2022-08-27T08:32:46;3.47;;;3.10;;
60416;SDS011;46263;44.726;10.396;2022-08-27T08:35:12;4.03;;;3.40;;
60416;SDS011;46263;44.726;10.396;2022-08-27T08:37:40;5.47;;;3.70;;
60416;SDS011;46263;44.726;10.396;2022-08-27T08:40:07;4.53;;;3.75;;
60416;SDS011;46263;44.726;10.396;2022-08-27T08:42:44;5.38;;;3.67;;
60416;SDS011;46263;44.726;10.396;2022-08-27T08:45:15;4.90;;;3.53;;
60416;SDS011;46263;44.726;10.396;2022-08-27T08:47:49;3.75;;;3.40;;
60416;SDS011;46263;44.726;10.396;2022-08-27T08:53:32;4.80;;;4.40;;
60416;SDS011;46263;44.726;10.396;2022-08-27T09:01:05;8.75;;;4.57;;
60416;SDS011;46263;44.726;10.396;2022-08-27T09:03:33;5.32;;;4.82;;
60416;SDS011;46263;44.726;10.396;2022-08-27T09:06:06;5.73;;;4.53;;
60416;SDS011;46263;44.726;10.396;2022-08-27T09:08:35;4.70;;;4.20;;
60416;SDS011;46263;44.726;10.396;2022-08-27T09:16:12;4.57;;;4.15;;
60416;SDS011;46263;44.726;10.396;2022-08-27T09:18:39;5.65;;;4.60;;
60416;SDS011;46263;44.726;10.396;2022-08-27T09:24:31;4.28;;;3.70;;
60416;SDS011;46263;44.726;10.396;2022-08-27T09:26:57;6.20;;;4.10;;
60416;SDS011;46263;44.726;10.396;2022-08-27T09:29:24;4.05;;;3.65;;
60416;SDS011;46263;44.726;10.396;2022-08-27T09:34:20;4.07;;;3.50;;
60416;SDS011;46263;44.726;10.396;2022-08-27T09:36:48;4.97;;;3.53;;
60416;SDS011;46263;44.726;10.396;2022-08-27T09:39:51;3.70;;;3.40;;
60416;SDS011;46263;44.726;10.396;2022-08-27T09:44:58;5.82;;;3.28;;
60416;SDS011;46263;44.726;10.396;2022-08-27T09:47:24;4.47;;;3.28;;
60416;SDS011;46263;44.726;10.396;2022-08-27T09:50:00;3.33;;;3.05;;
60416;SDS011;46263;44.726;10.396;2022-08-27T09:52:30;3.97;;;3.25;;
60416;SDS011;46263;44.726;10.396;2022-08-27T09:54:58;5.53;;;3.05;;
60416;SDS011;46263;44.726;10.396;2022-08-27T09:57:29;6.60;;;3.33;;
60416;SDS011;46263;44.726;10.396;2022-08-27T10:00:03;3.50;;;3.20;;
60416;SDS011;46263;44.726;10.396;2022-08-27T10:02:32;6.50;;;3.25;;
60416;SDS011;46263;44.726;10.396;2022-08-27T10:05:00;3.25;;;2.95;;
60416;SDS011;46263;44.726;10.396;2022-08-27T10:07:42;3.25;;;2.90;;
60416;SDS011;46263;44.726;10.396;2022-08-27T10:12:56;4.05;;;2.83;;
60416;SDS011;46263;44.726;10.396;2022-08-27T10:15:27;3.83;;;2.97;;
60416;SDS011;46263;44.726;10.396;2022-08-27T10:40:31;3.28;;;2.75;;
60416;SDS011;46263;44.726;10.396;2022-08-27T10:48:44;4.20;;;2.22;;
60416;SDS011;46263;44.726;10.396;2022-08-27T10:53:47;5.55;;;2.50;;
60416;SDS011;46263;44.726;10.396;2022-08-27T10:58:48;2.72;;;2.50;;
60416;SDS011;46263;44.726;10.396;2022-08-27T11:01:23;2.80;;;2.55;;
60416;SDS011;46263;44.726;10.396;2022-08-27T11:04:12;2.97;;;2.35;;
60416;SDS011;46263;44.726;10.396;2022-08-27T11:06:43;2.95;;;2.40;;
60416;SDS011;46263;44.726;10.396;2022-08-27T11:09:46;2.70;;;2.30;;
60416;SDS011;46263;44.726;10.396;2022-08-27T11:12:18;2.63;;;2.40;;
60416;SDS011;46263;44.726;10.396;2022-08-27T11:14:53;2.45;;;2.10;;
60416;SDS011;46263;44.726;10.396;2022-08-27T11:17:35;2.67;;;2.47;;
60416;SDS011;46263;44.726;10.396;2022-08-27T11:20:18;2.63;;;2.42;;
60416;SDS011;46263;44.726;10.396;2022-08-27T11:22:54;4.88;;;2.40;;
60416;SDS011;46263;44.726;10.396;2022-08-27T11:28:18;2.78;;;2.58;;
60416;SDS011;46263;44.726;10.396;2022-08-27T11:33:57;5.18;;;2.50;;
60416;SDS011;46263;44.726;10.396;2022-08-27T11:44:27;3.78;;;2.72;;
60416;SDS011;46263;44.726;10.396;2022-08-27T11:46:57;4.80;;;2.90;;
60416;SDS011;46263;44.726;10.396;2022-08-27T11:49:55;5.00;;;2.20;;
60416;SDS011;46263;44.726;10.396;2022-08-27T11:52:27;2.72;;;2.53;;
60416;SDS011;46263;44.726;10.396;2022-08-27T11:55:21;2.53;;;2.33;;
60416;SDS011;46263;44.726;10.396;2022-08-27T12:00:29;4.68;;;2.42;;
60416;SDS011;46263;44.726;10.396;2022-08-27T12:03:01;3.33;;;2.97;;
60416;SDS011;46263;44.726;10.396;2022-08-27T12:08:13;2.67;;;2.15;;
60416;SDS011;46263;44.726;10.396;2022-08-27T12:17:11;3.33;;;2.20;;
60416;SDS011;46263;44.726;10.396;2022-08-27T12:25:28;2.60;;;2.40;;
60416;SDS011;46263;44.726;10.396;2022-08-27T12:27:59;2.72;;;2.53;;
60416;SDS011;46263;44.726;10.396;2022-08-27T12:33:13;3.13;;;2.83;;
60416;SDS011;46263;44.726;10.396;2022-08-27T12:35:51;2.65;;;2.47;;
60416;SDS011;46263;44.726;10.396;2022-08-27T12:41:09;3.70;;;2.80;;
60416;SDS011;46263;44.726;10.396;2022-08-27T12:43:35;3.17;;;2.33;;
60416;SDS011;46263;44.726;10.396;2022-08-27T12:46:09;3.30;;;2.60;;
60416;SDS011;46263;44.726;10.396;2022-08-27T12:48:47;2.70;;;2.50;;
60416;SDS011;46263;44.726;10.396;2022-08-27T12:51:22;2.83;;;2.63;;
60416;SDS011;46263;44.726;10.396;2022-08-27T13:04:24;3.17;;;2.50;;
60416;SDS011;46263;44.726;10.396;2022-08-27T13:06:52;3.05;;;2.33;;
60416;SDS011;46263;44.726;10.396;2022-08-27T13:09:29;2.58;;;2.38;;
60416;SDS011;46263;44.726;10.396;2022-08-27T13:11:57;2.53;;;2.35;;
60416;SDS011;46263;44.726;10.396;2022-08-27T13:14:25;2.67;;;2.40;;
60416;SDS011;46263;44.726;10.396;2022-08-27T13:17:01;3.58;;;2.65;;
60416;SDS011;46263;44.726;10.396;2022-08-27T13:19:49;3.33;;;2.47;;
60416;SDS011;46263;44.726;10.396;2022-08-27T13:22:21;4.90;;;2.37;;
60416;SDS011;46263;44.726;10.396;2022-08-27T13:24:49;2.78;;;2.30;;
60416;SDS011;46263;44.726;10.396;2022-08-27T13:27:22;3.13;;;2.40;;
60416;SDS011;46263;44.726;10.396;2022-08-27T13:29:50;3.15;;;2.63;;
60416;SDS011;46263;44.726;10.396;2022-08-27T13:32:16;2.50;;;2.30;;
60416;SDS011;46263;44.726;10.396;2022-08-27T13:34:42;3.22;;;2.53;;
60416;SDS011;46263;44.726;10.396;2022-08-27T13:39:50;2.45;;;2.25;;
60416;SDS011;46263;44.726;10.396;2022-08-27T13:42:18;2.40;;;2.20;;
60416;SDS011;46263;44.726;10.396;2022-08-27T13:44:43;3.35;;;2.10;;
60416;SDS011;46263;44.726;10.396;2022-08-27T13:47:16;3.05;;;2.53;;
60416;SDS011;46263;44.726;10.396;2022-08-27T13:49:43;3.50;;;2.17;;
60416;SDS011;46263;44.726;10.396;2022-08-27T13:54:59;2.97;;;2.40;;
60416;SDS011;46263;44.726;10.396;2022-08-27T13:57:39;2.65;;;2.45;;
60416;SDS011;46263;44.726;10.396;2022-08-27T14:00:09;3.97;;;2.55;;
60416;SDS011;46263;44.726;10.396;2022-08-27T14:02:40;3.30;;;2.45;;
60416;SDS011;46263;44.726;10.396;2022-08-27T14:05:11;2.85;;;2.58;;
60416;SDS011;46263;44.726;10.396;2022-08-27T14:10:37;2.50;;;2.30;;
60416;SDS011;46263;44.726;10.396;2022-08-27T14:13:21;3.17;;;2.60;;
60416;SDS011;46263;44.726;10.396;2022-08-27T14:15:51;3.20;;;2.88;;
60416;SDS011;46263;44.726;10.396;2022-08-27T14:18:22;3.90;;;2.80;;
60416;SDS011;46263;44.726;10.396;2022-08-27T14:20:56;3.45;;;2.63;;
60416;SDS011;46263;44.726;10.396;2022-08-27T14:23:23;4.28;;;2.83;;
60416;SDS011;46263;44.726;10.396;2022-08-27T14:25:49;3.00;;;2.60;;
60416;SDS011;46263;44.726;10.396;2022-08-27T14:28:16;2.45;;;2.25;;
60416;SDS011;46263;44.726;10.396;2022-08-27T14:30:41;3.30;;;3.00;;
60416;SDS011;46263;44.726;10.396;2022-08-27T14:33:07;5.20;;;2.63;;
60416;SDS011;46263;44.726;10.396;2022-08-27T14:35:34;3.13;;;2.83;;
60416;SDS011;46263;44.726;10.396;2022-08-27T14:38:06;2.92;;;2.63;;
60416;SDS011;46263;44.726;10.396;2022-08-27T14:40:43;3.03;;;2.40;;
60416;SDS011;46263;44.726;10.396;2022-08-27T14:43:10;2.85;;;2.65;;
60416;SDS011;46263;44.726;10.396;2022-08-27T14:45:36;3.22;;;2.50;;
60416;SDS011;46263;44.726;10.396;2022-08-27T14:48:06;3.15;;;2.95;;
60416;SDS011;46263;44.726;10.396;2022-08-27T14:50:34;4.45;;;3.10;;
60416;SDS011;46263;44.726;10.396;2022-08-27T14:53:02;2.53;;;2.35;;
60416;SDS011;46263;44.726;10.396;2022-08-27T14:55:28;2.50;;;2.40;;
60416;SDS011;46263;44.726;10.396;2022-08-27T14:57:55;3.28;;;3.00;;
60416;SDS011;46263;44.726;10.396;2022-08-27T15:00:21;3.28;;;2.97;;
60416;SDS011;46263;44.726;10.396;2022-08-27T15:02:47;3.28;;;2.80;;
60416;SDS011;46263;44.726;10.396;2022-08-27T15:05:13;3.20;;;3.00;;
60416;SDS011;46263;44.726;10.396;2022-08-27T15:07:39;3.15;;;2.95;;
60416;SDS011;46263;44.726;10.396;2022-08-27T15:10:05;3.70;;;2.88;;
60416;SDS011;46263;44.726;10.396;2022-08-27T15:12:30;3.17;;;2.50;;
60416;SDS011;46263;44.726;10.396;2022-08-27T15:14:56;3.85;;;2.90;;
60416;SDS011;46263;44.726;10.396;2022-08-27T15:17:22;3.13;;;2.90;;
60416;SDS011;46263;44.726;10.396;2022-08-27T15:19:47;2.70;;;2.50;;
60416;SDS011;46263;44.726;10.396;2022-08-27T15:22:18;4.22;;;3.00;;
60416;SDS011;46263;44.726;10.396;2022-08-27T15:24:47;2.90;;;2.70;;
60416;SDS011;46263;44.726;10.396;2022-08-27T15:27:16;3.20;;;2.88;;
60416;SDS011;46263;44.726;10.396;2022-08-27T15:29:41;3.60;;;2.85;;
60416;SDS011;46263;44.726;10.396;2022-08-27T15:32:08;3.38;;;3.08;;
60416;SDS011;46263;44.726;10.396;2022-08-27T15:34:39;4.67;;;2.90;;
60416;SDS011;46263;44.726;10.396;2022-08-27T15:37:05;3.75;;;2.90;;
60416;SDS011;46263;44.726;10.396;2022-08-27T15:39:30;2.80;;;2.60;;
60416;SDS011;46263;44.726;10.396;2022-08-27T15:41:55;4.20;;;2.60;;
60416;SDS011;46263;44.726;10.396;2022-08-27T15:44:21;3.53;;;2.88;;
60416;SDS011;46263;44.726;10.396;2022-08-27T15:46:47;3.58;;;3.10;;
60416;SDS011;46263;44.726;10.396;2022-08-27T15:49:13;2.97;;;2.75;;
60416;SDS011;46263;44.726;10.396;2022-08-27T15:51:39;2.95;;;2.75;;
60416;SDS011;46263;44.726;10.396;2022-08-27T15:54:05;3.20;;;3.00;;
60416;SDS011;46263;44.726;10.396;2022-08-27T15:56:31;4.57;;;2.50;;
60416;SDS011;46263;44.726;10.396;2022-08-27T15:58:56;7.97;;;3.05;;
60416;SDS011;46263;44.726;10.396;2022-08-27T16:01:25;2.88;;;2.67;;
60416;SDS011;46263;44.726;10.396;2022-08-27T16:04:00;3.63;;;2.92;;
60416;SDS011;46263;44.726;10.396;2022-08-27T16:06:26;4.00;;;2.92;;
60416;SDS011;46263;44.726;10.396;2022-08-27T16:08:53;3.38;;;3.08;;
60416;SDS011;46263;44.726;10.396;2022-08-27T16:11:18;3.03;;;2.70;;
60416;SDS011;46263;44.726;10.396;2022-08-27T16:13:46;3.47;;;3.17;;
60416;SDS011;46263;44.726;10.396;2022-08-27T16:16:11;3.17;;;2.88;;
60416;SDS011;46263;44.726;10.396;2022-08-27T16:18:37;3.35;;;3.08;;
60416;SDS011;46263;44.726;10.396;2022-08-27T16:21:06;3.22;;;3.03;;
60416;SDS011;46263;44.726;10.396;2022-08-27T16:23:32;3.10;;;2.90;;
60416;SDS011;46263;44.726;10.396;2022-08-27T16:25:58;3.17;;;2.88;;
60416;SDS011;46263;44.726;10.396;2022-08-27T16:28:24;3.90;;;3.00;;
60416;SDS011;46263;44.726;10.396;2022-08-27T16:30:51;3.28;;;2.97;;
60416;SDS011;46263;44.726;10.396;2022-08-27T16:33:18;3.30;;;3.03;;
60416;SDS011;46263;44.726;10.396;2022-08-27T16:35:44;3.25;;;3.00;;
60416;SDS011;46263;44.726;10.396;2022-08-27T16:38:10;3.10;;;2.90;;